Time;durP1;ratioP1;P1;durP2;ratioP2;P2;SDS_P1;SDS_P2;PMS_P1;PMS_P2;Temp;Humidity;BMP_temperature;BMP_pressure;BME280_temperature;BME280_humidity;BME280_pressure;Samples;Min_cycle;Max_cycle;Signal;HPM_P1;HPM_P2
2022/08/24 00:01:34;;;;;;;14.73;13.23;;;;;;;22.26;73.68;101528.25;5221710;28;20530;-71
2022/08/24 00:04:05;;;;;;;15.60;13.97;;;;;;;21.96;74.68;101520.00;5220933;28;20344;-71
2022/08/24 00:06:37;;;;;;;14.47;13.00;;;;;;;22.19;73.89;101521.53;5202945;28;20037;-71
2022/08/24 00:09:08;;;;;;;16.67;14.07;;;;;;;22.09;74.46;101518.50;5221037;28;20034;-71
2022/08/24 00:11:39;;;;;;;14.03;12.53;;;;;;;22.14;74.17;101521.78;5221060;28;20034;-71
2022/08/24 00:14:11;;;;;;;15.70;14.20;;;;;;;22.06;74.67;101517.75;5221277;28;20034;-71
2022/08/24 00:16:42;;;;;;;16.33;14.83;;;;;;;21.92;75.08;101526.41;5220853;28;20084;-71
2022/08/24 00:19:14;;;;;;;16.13;14.57;;;;;;;21.74;75.80;101523.72;5220686;28;20088;-71
2022/08/24 00:21:45;;;;;;;16.88;15.32;;;;;;;21.60;76.07;101531.47;5221334;28;20026;-71
2022/08/24 00:24:17;;;;;;;15.63;14.30;;;;;;;21.51;76.70;101530.13;5221097;28;20026;-71
2022/08/24 00:26:49;;;;;;;16.02;14.63;;;;;;;21.59;76.69;101527.97;5221205;28;20034;-71
2022/08/24 00:29:21;;;;;;;15.77;14.25;;;;;;;21.62;76.58;101533.13;5220765;28;20038;-71
2022/08/24 00:31:53;;;;;;;16.67;15.00;;;;;;;21.74;76.28;101538.78;5221462;28;20068;-71
2022/08/24 00:34:25;;;;;;;17.43;15.53;;;;;;;21.78;76.29;101535.03;5220875;28;20030;-71
2022/08/24 00:36:56;;;;;;;;;;;;;;;21.98;73.27;101542.91;5221875;28;20026;-71
2022/08/24 00:39:28;;;;;;;16.37;14.63;;;;;;;21.62;75.96;101540.22;5203610;28;19909;-71
2022/08/24 00:41:59;;;;;;;17.23;15.53;;;;;;;21.52;76.65;101539.78;5220514;28;20391;-71
2022/08/24 00:44:32;;;;;;;17.70;15.97;;;;;;;21.29;77.53;101538.19;5203489;28;20280;-71
2022/08/24 00:47:23;;;;;;;;;;;;;;;21.74;73.81;101536.13;5221233;28;20045;-71
2022/08/24 00:50:01;;;;;;;20.92;17.67;;;;;;;21.43;76.67;101538.41;5220317;28;20022;-71
2022/08/24 00:52:40;;;;;;;19.85;17.80;;;;;;;21.27;77.87;101532.09;5221224;28;20116;-71
2022/08/24 00:55:16;;;;;;;19.33;17.58;;;;;;;21.41;77.81;101539.41;5220907;28;20052;-71
2022/08/24 00:57:54;;;;;;;19.70;17.80;;;;;;;21.38;78.37;101548.38;5203422;28;20064;-71
2022/08/24 01:00:30;;;;;;;19.13;17.33;;;;;;;21.41;78.30;101540.28;5202974;28;20045;-71
2022/08/24 01:03:04;;;;;;;20.00;17.90;;;;;;;21.29;77.80;101540.81;5220260;28;20117;-71
2022/08/24 01:05:37;;;;;;;18.80;16.90;;;;;;;21.20;78.06;101544.75;5220304;28;20029;-71
2022/08/24 01:08:10;;;;;;;18.65;16.95;;;;;;;21.07;78.90;101547.09;5202856;28;20021;-70
2022/08/24 01:10:47;;;;;;;19.60;17.92;;;;;;;21.05;78.76;101541.00;5219977;28;20459;-71
2022/08/24 01:13:20;;;;;;;20.10;18.27;;;;;;;21.01;79.19;101544.72;5220461;28;20120;-72
2022/08/24 01:15:56;;;;;;;21.15;18.98;;;;;;;20.99;79.72;101540.41;5220528;28;20030;-71
2022/08/24 01:21:47;;;;;;;20.13;18.23;;;;;;;21.04;78.73;101539.31;5225353;28;20042;-71
2022/08/24 01:24:18;;;;;;;21.55;19.55;;;;;;;20.87;79.73;101540.03;5226254;28;20080;-70
2022/08/24 01:26:50;;;;;;;19.93;17.97;;;;;;;20.84;79.63;101539.31;5209054;28;20097;-70
2022/08/24 01:29:26;;;;;;;20.02;17.63;;;;;;;20.80;80.02;101538.59;5225763;28;20489;-71
2022/08/24 01:31:57;;;;;;;19.58;17.67;;;;;;;21.02;79.39;101538.47;5228672;28;20026;-70
2022/08/24 01:34:29;;;;;;;19.60;17.83;;;;;;;20.92;79.72;101545.97;5230178;28;20096;-71
2022/08/24 01:37:02;;;;;;;21.60;19.23;;;;;;;20.68;80.21;101542.63;5226753;28;20030;-71
2022/08/24 01:39:39;;;;;;;21.92;19.90;;;;;;;20.90;79.87;101539.06;5224943;28;20367;-71
2022/08/24 01:42:12;;;;;;;22.38;20.23;;;;;;;20.75;80.15;101536.16;5224316;28;20034;-71
2022/08/24 01:44:45;;;;;;;22.13;20.02;;;;;;;20.88;80.15;101538.22;5206454;28;20099;-72
2022/08/24 01:47:16;;;;;;;22.58;20.67;;;;;;;20.83;80.63;101533.13;5224363;28;20415;-72
2022/08/24 01:49:48;;;;;;;24.93;22.63;;;;;;;20.69;80.75;101528.47;5224127;28;20054;-71
2022/08/24 01:52:24;;;;;;;24.30;21.77;;;;;;;20.54;81.52;101523.78;5207358;28;20033;-71
2022/08/24 01:54:55;;;;;;;23.67;21.45;;;;;;;20.45;81.99;101527.69;5223790;28;20022;-71
2022/08/24 01:57:27;;;;;;;23.87;21.63;;;;;;;20.42;81.88;101524.31;5224361;28;20038;-71
2022/08/24 01:59:59;;;;;;;23.70;21.47;;;;;;;20.48;81.80;101531.97;5223872;28;20069;-71
2022/08/24 02:02:31;;;;;;;21.70;19.67;;;;;;;20.56;81.08;101525.44;5205864;28;20034;-71
2022/08/24 02:05:03;;;;;;;21.33;19.27;;;;;;;20.58;80.87;101528.88;5224028;28;20030;-72
2022/08/24 02:07:34;;;;;;;21.52;19.50;;;;;;;20.50;81.28;101524.84;5224117;28;20108;-71
2022/08/24 02:10:08;;;;;;;23.20;20.83;;;;;;;20.55;81.44;101526.34;5223734;28;20113;-71
2022/08/24 02:12:41;;;;;;;22.58;20.48;;;;;;;20.42;81.76;101530.47;5223231;28;20084;-71
2022/08/24 02:15:13;;;;;;;22.52;20.33;;;;;;;20.15;82.56;101533.31;5205864;28;20041;-72
2022/08/24 02:17:44;;;;;;;21.33;19.27;;;;;;;20.23;82.25;101527.72;5223344;28;20052;-71
2022/08/24 02:20:16;;;;;;;19.83;17.87;;;;;;;20.40;81.80;101533.19;5223464;28;20057;-71
2022/08/24 02:22:48;;;;;;;21.50;19.40;;;;;;;20.16;82.16;101536.84;5223328;28;20033;-71
2022/08/24 02:25:20;;;;;;;21.17;19.02;;;;;;;20.03;82.65;101533.84;5223051;28;20498;-70
2022/08/24 02:27:52;;;;;;;21.95;19.73;;;;;;;19.99;82.47;101534.88;5222979;28;20034;-71
2022/08/24 02:30:23;;;;;;;21.57;19.57;;;;;;;20.13;82.58;101547.56;5222547;28;20375;-71
2022/08/24 02:32:55;;;;;;;22.37;20.37;;;;;;;20.10;82.83;101550.34;5222553;28;20116;-70
2022/08/24 02:35:28;;;;;;;21.50;19.35;;;;;;;19.99;83.12;101548.13;5205598;28;20029;-72
2022/08/24 02:37:59;;;;;;;23.00;20.70;;;;;;;19.84;83.34;101544.31;5223096;28;20038;-70
2022/08/24 02:40:31;;;;;;;22.13;19.30;;;;;;;20.04;82.93;101549.66;5222838;28;20104;-71
2022/08/24 02:43:02;;;;;;;19.80;18.03;;;;;;;20.08;82.66;101547.75;5222567;28;20105;-71
2022/08/24 02:45:39;;;;;;;21.10;19.13;;;;;;;20.11;83.07;101557.34;5222727;28;20084;-70
2022/08/24 02:48:12;;;;;;;21.73;19.73;;;;;;;20.11;83.09;101558.22;5222693;28;20022;-70
2022/08/24 02:50:46;;;;;;;22.20;19.90;;;;;;;19.88;84.01;101556.47;5223317;28;20045;-70
2022/08/24 02:53:20;;;;;;;20.80;18.75;;;;;;;19.93;83.32;101549.22;5222762;28;20040;-70
2022/08/24 02:55:51;;;;;;;22.58;20.58;;;;;;;20.06;83.20;101554.00;5222493;28;20050;-71
2022/08/24 02:58:22;;;;;;;22.13;20.17;;;;;;;20.03;83.24;101555.88;5222519;28;20102;-70
2022/08/24 03:00:54;;;;;;;22.10;20.00;;;;;;;19.73;83.91;101549.97;5222104;28;20080;-71
2022/08/24 03:03:25;;;;;;;21.03;19.03;;;;;;;19.90;83.52;101551.13;5222525;28;20033;-70
2022/08/24 03:05:56;;;;;;;21.13;19.03;;;;;;;19.85;83.87;101551.28;5222350;28;20064;-70
2022/08/24 03:08:28;;;;;;;22.43;20.10;;;;;;;19.59;84.13;101545.19;5222143;28;20467;-70
2022/08/24 03:10:59;;;;;;;21.60;19.47;;;;;;;19.47;84.78;101543.06;5204629;28;20348;-71
2022/08/24 03:13:31;;;;;;;23.13;20.80;;;;;;;19.45;84.98;101544.91;5222745;28;20037;-71
2022/08/24 03:16:04;;;;;;;23.67;21.37;;;;;;;19.54;84.86;101546.31;5222260;28;20149;-70
2022/08/24 03:18:35;;;;;;;23.65;20.85;;;;;;;19.64;84.38;101545.03;5222626;28;20361;-70
2022/08/24 03:21:07;;;;;;;22.47;20.33;;;;;;;19.65;84.24;101546.75;5222102;28;20034;-70
2022/08/24 03:23:38;;;;;;;23.47;21.47;;;;;;;19.61;84.36;101551.31;5221722;28;20037;-70
2022/08/24 03:26:11;;;;;;;23.13;20.92;;;;;;;19.52;84.53;101543.72;5204783;28;20460;-70
2022/08/24 03:28:42;;;;;;;22.10;20.02;;;;;;;19.43;84.86;101549.34;5204803;28;20065;-70
2022/08/24 03:31:14;;;;;;;21.07;19.00;;;;;;;19.50;84.61;101545.59;5221326;28;20463;-69
2022/08/24 03:33:45;;;;;;;20.53;18.67;;;;;;;19.51;84.58;101547.28;5187795;28;20391;-69
2022/08/24 03:36:17;;;;;;;22.30;20.30;;;;;;;19.52;84.86;101548.16;5221853;28;20089;-69
2022/08/24 03:38:49;;;;;;;22.73;20.65;;;;;;;19.36;84.83;101540.81;5221933;28;20691;-69
2022/08/24 03:41:20;;;;;;;23.75;21.40;;;;;;;19.44;84.80;101537.88;5221358;28;20569;-69
2022/08/24 03:43:54;;;;;;;22.67;20.37;;;;;;;19.17;85.69;101535.34;5221803;28;20048;-69
2022/08/24 03:46:27;;;;;;;23.42;21.02;;;;;;;19.42;85.68;101537.09;5221379;28;20054;-67
2022/08/24 03:48:59;;;;;;;21.05;18.95;;;;;;;19.40;85.27;101534.50;5221279;28;20128;-69
2022/08/24 03:51:30;;;;;;;21.10;18.93;;;;;;;19.37;85.16;101534.59;5221446;28;20138;-69
2022/08/24 03:54:04;;;;;;;21.43;19.43;;;;;;;19.14;85.45;101548.66;5221436;28;20439;-69
2022/08/24 03:56:35;;;;;;;22.60;20.50;;;;;;;19.21;86.18;101541.41;5221002;28;20037;-69
2022/08/24 03:59:09;;;;;;;21.03;19.03;;;;;;;19.36;85.83;101539.94;5221032;28;20026;-69
2022/08/24 04:01:40;;;;;;;21.85;19.95;;;;;;;19.01;86.75;101540.31;5203853;28;20284;-69
2022/08/24 04:04:12;;;;;;;22.97;20.83;;;;;;;19.04;87.11;101536.72;5220983;28;20034;-69
2022/08/24 04:06:45;;;;;;;22.47;20.30;;;;;;;19.24;86.49;101544.78;5221188;28;20042;-69
2022/08/24 04:09:18;;;;;;;23.65;21.50;;;;;;;18.93;87.21;101548.53;5221286;28;20420;-69
2022/08/24 04:11:49;;;;;;;23.15;20.80;;;;;;;18.89;87.77;101546.91;5221640;28;20153;-69
2022/08/24 04:14:21;;;;;;;22.20;20.02;;;;;;;18.83;87.65;101546.22;5187340;28;20113;-69
2022/08/24 04:16:52;;;;;;;21.97;19.83;;;;;;;18.93;87.39;101543.25;5220951;28;20200;-69
2022/08/24 04:19:24;;;;;;;23.67;21.33;;;;;;;18.84;87.97;101545.34;5221065;28;20030;-68
2022/08/24 04:21:59;;;;;;;22.85;20.50;;;;;;;19.10;87.30;101547.06;5220796;28;20041;-68
2022/08/24 04:24:30;;;;;;;21.83;19.73;;;;;;;19.08;87.44;101546.25;5220742;28;20109;-68
2022/08/24 04:27:02;;;;;;;22.70;20.53;;;;;;;18.76;88.15;101550.88;5220662;28;20108;-68
2022/08/24 04:29:34;;;;;;;22.07;19.90;;;;;;;18.92;87.77;101551.22;5203733;28;20068;-68
2022/08/24 04:32:06;;;;;;;20.58;18.67;;;;;;;19.00;87.69;101554.47;5220566;28;20034;-68
2022/08/24 04:34:38;;;;;;;20.75;18.85;;;;;;;18.72;88.69;101562.44;5220465;28;20376;-68
2022/08/24 04:37:09;;;;;;;23.05;20.90;;;;;;;18.60;88.87;101558.47;5202789;28;20037;-68
2022/08/24 04:39:41;;;;;;;22.13;20.10;;;;;;;18.81;88.84;101564.78;5220726;28;20029;-68
2022/08/24 04:42:12;;;;;;;22.17;20.07;;;;;;;18.59;89.16;101552.31;5220664;28;20049;-68
2022/08/24 04:44:44;;;;;;;23.00;20.97;;;;;;;18.50;89.44;101557.91;5220463;28;20064;-68
2022/08/24 04:47:15;;;;;;;21.77;19.67;;;;;;;18.74;89.27;101555.31;5220435;28;20049;-68
2022/08/24 04:49:47;;;;;;;21.07;19.07;;;;;;;18.71;89.08;101555.47;5202524;28;20073;-67
2022/08/24 04:52:18;;;;;;;23.27;20.70;;;;;;;18.75;88.80;101560.56;5220210;28;20527;-68
2022/08/24 04:54:50;;;;;;;24.10;21.73;;;;;;;18.88;88.61;101562.81;5226802;28;20387;-67
2022/08/24 04:57:22;;;;;;;22.77;20.57;;;;;;;18.59;88.81;101562.88;5226703;28;20037;-67
2022/08/24 04:59:56;;;;;;;22.27;20.17;;;;;;;18.77;88.65;101563.16;5227027;28;20391;-67
2022/08/24 05:02:28;;;;;;;23.33;21.08;;;;;;;18.74;88.48;101572.06;5209684;28;20034;-67
2022/08/24 05:05:00;;;;;;;22.27;20.07;;;;;;;18.79;88.78;101569.25;5227583;28;20042;-67
2022/08/24 05:07:31;;;;;;;24.70;22.23;;;;;;;18.84;89.02;101571.78;5226986;28;20037;-67
2022/08/24 05:10:07;;;;;;;24.33;22.03;;;;;;;18.72;89.36;101568.63;5227119;28;20034;-67
2022/08/24 05:12:38;;;;;;;24.00;21.65;;;;;;;18.80;88.89;101573.59;5227220;28;20026;-67
2022/08/24 05:15:11;;;;;;;24.77;22.37;;;;;;;18.89;89.25;101575.97;5227071;28;20064;-67
2022/08/24 05:17:43;;;;;;;24.33;22.15;;;;;;;18.92;88.82;101569.72;5226608;28;20041;-66
2022/08/24 05:20:14;;;;;;;25.13;22.53;;;;;;;18.91;89.24;101574.13;5226970;28;20366;-67
2022/08/24 05:22:46;;;;;;;26.60;24.00;;;;;;;18.81;89.17;101577.13;5208821;28;20026;-66
2022/08/24 05:25:17;;;;;;;28.70;25.87;;;;;;;18.87;89.41;101575.16;5226262;28;20049;-66
2022/08/24 05:27:50;;;;;;;26.52;24.23;;;;;;;18.79;90.05;101574.53;5226308;28;20038;-67
2022/08/24 05:30:21;;;;;;;;;;;;;;;19.06;87.75;101580.66;5226330;28;20084;-67
2022/08/24 05:32:53;;;;;;;29.58;26.80;;;;;;;18.85;90.13;101577.00;5226104;28;19917;-67
2022/08/24 05:35:24;;;;;;;31.40;28.30;;;;;;;18.93;91.00;101582.00;5226070;28;20428;-67
2022/08/24 05:37:56;;;;;;;30.90;28.10;;;;;;;19.07;90.84;101592.94;5225780;28;20117;-67
2022/08/24 05:40:27;;;;;;;29.80;27.23;;;;;;;19.15;90.73;101591.81;5225976;28;20038;-66
2022/08/24 05:42:58;;;;;;;32.47;29.40;;;;;;;19.02;91.05;101586.97;5207875;28;20065;-66
2022/08/24 05:45:30;;;;;;;31.70;28.73;;;;;;;19.06;91.06;101591.25;5226504;28;20045;-67
2022/08/24 05:48:02;;;;;;;33.07;29.87;;;;;;;19.23;91.73;101590.63;5227104;28;20030;-66
2022/08/24 05:50:33;;;;;;;33.35;29.77;;;;;;;19.23;92.31;101587.97;5208870;28;20491;-67
2022/08/24 05:53:05;;;;;;;36.30;32.60;;;;;;;19.32;92.49;101594.72;5226733;28;20026;-66
2022/08/24 05:55:37;;;;;;;37.25;33.88;;;;;;;19.30;92.01;101588.59;5226255;28;20046;-67
2022/08/24 05:58:09;;;;;;;37.30;33.90;;;;;;;19.31;92.84;101595.63;5225881;28;20503;-67
2022/08/24 06:00:44;;;;;;;36.33;32.93;;;;;;;19.45;92.74;101588.06;5226563;28;20029;-67
2022/08/24 06:03:15;;;;;;;36.47;32.92;;;;;;;19.42;92.70;101579.38;5209232;28;20026;-67
2022/08/24 06:05:47;;;;;;;37.42;33.88;;;;;;;19.62;93.29;101590.06;5222782;28;20509;-67
2022/08/24 06:08:20;;;;;;;36.15;32.67;;;;;;;19.78;93.44;101590.34;5223085;28;20120;-67
2022/08/24 06:10:51;;;;;;;38.15;34.38;;;;;;;19.65;92.80;101592.59;5205396;28;20041;-67
2022/08/24 06:13:23;;;;;;;38.23;34.67;;;;;;;19.86;92.66;101600.66;5222938;28;20030;-67
2022/08/24 06:16:05;;;;;;;39.10;35.33;;;;;;;19.95;92.97;101604.75;5223073;28;20029;-67
2022/08/24 06:18:38;;;;;;;37.75;33.83;;;;;;;20.02;93.11;101608.84;5222421;28;20041;-67
2022/08/24 06:21:14;;;;;;;38.00;34.38;;;;;;;20.11;93.33;101610.28;5222639;28;20460;-67
2022/08/24 06:23:46;;;;;;;36.47;33.08;;;;;;;20.21;93.66;101609.84;5222333;28;20026;-67
2022/08/24 06:29:10;;;;;;;37.15;33.63;;;;;;;20.33;93.68;101611.13;5222653;28;20506;-67
2022/08/24 06:31:44;;;;;;;36.33;32.53;;;;;;;20.40;93.32;101617.06;5222208;28;20106;-67
2022/08/24 06:34:17;;;;;;;36.60;33.10;;;;;;;20.45;92.50;101615.09;5222394;28;20414;-67
2022/08/24 06:36:49;;;;;;;34.83;31.63;;;;;;;20.58;92.68;101615.44;5222299;28;20076;-67
2022/08/24 06:39:20;;;;;;;39.80;35.97;;;;;;;20.60;92.91;101618.88;5222774;28;20034;-67
2022/08/24 06:41:51;;;;;;;37.97;34.30;;;;;;;20.82;93.57;101624.19;5204835;28;20276;-67
2022/08/24 06:44:23;;;;;;;39.03;35.13;;;;;;;20.82;92.87;101624.19;5221991;28;20093;-67
2022/08/24 06:46:54;;;;;;;38.30;34.77;;;;;;;20.88;91.58;101617.72;5222365;28;20064;-67
2022/08/24 06:49:26;;;;;;;38.90;35.50;;;;;;;20.98;92.02;101627.03;5221869;28;20054;-67
2022/08/24 06:51:57;;;;;;;34.40;31.13;;;;;;;21.17;91.23;101626.22;5204702;28;20064;-67
2022/08/24 06:54:29;;;;;;;33.23;29.93;;;;;;;21.16;90.20;101621.88;5222397;28;20045;-67
2022/08/24 06:57:00;;;;;;;33.60;30.10;;;;;;;21.23;90.32;101626.81;5204078;28;20061;-67
2022/08/24 06:59:32;;;;;;;33.43;30.10;;;;;;;21.35;89.70;101625.41;5221485;28;20033;-69
2022/08/24 07:02:03;;;;;;;30.08;27.38;;;;;;;21.44;90.47;101627.63;5203860;28;20399;-66
2022/08/24 07:04:35;;;;;;;31.77;28.37;;;;;;;21.60;88.69;101627.84;5221759;28;20059;-66
2022/08/24 07:07:06;;;;;;;31.07;27.50;;;;;;;21.69;88.00;101637.19;5203609;28;20072;-66
2022/08/24 07:09:38;;;;;;;36.13;26.80;;;;;;;21.74;84.68;101636.97;5221356;28;20528;-66
2022/08/24 07:12:09;;;;;;;28.70;25.27;;;;;;;21.90;85.98;101642.44;5221613;28;20041;-66
2022/08/24 07:14:40;;;;;;;34.30;25.40;;;;;;;22.01;84.92;101637.47;5203867;28;20079;-65
2022/08/24 07:17:12;;;;;;;24.33;21.33;;;;;;;22.13;82.85;101642.19;5220816;28;20042;-66
2022/08/24 07:19:44;;;;;;;26.83;23.73;;;;;;;22.27;82.92;101644.19;5221287;28;20057;-67
2022/08/24 07:22:16;;;;;;;27.63;22.60;;;;;;;22.39;82.81;101638.31;5221641;28;20120;-66
2022/08/24 07:24:47;;;;;;;24.00;21.67;;;;;;;22.53;78.39;101644.75;5220855;28;20489;-66
2022/08/24 07:27:19;;;;;;;29.13;19.90;;;;;;;22.70;81.51;101647.41;5221082;28;20467;-67
2022/08/24 07:29:53;;;;;;;28.80;20.73;;;;;;;22.81;80.04;101644.19;5204112;28;20376;-67
2022/08/24 07:32:25;;;;;;;18.48;16.48;;;;;;;23.01;76.66;101637.88;5222324;28;20428;-67
2022/08/24 07:34:56;;;;;;;22.40;17.10;;;;;;;23.09;78.17;101640.19;5221552;28;20033;-68
2022/08/24 07:37:27;;;;;;;20.67;16.30;;;;;;;23.19;74.86;101643.22;5221746;28;20042;-67
2022/08/24 07:39:59;;;;;;;21.73;15.97;;;;;;;23.32;72.42;101638.97;5221482;28;20049;-67
2022/08/24 07:42:30;;;;;;;18.97;14.40;;;;;;;23.56;73.97;101643.91;5203432;28;20049;-67
2022/08/24 07:45:02;;;;;;;17.83;13.57;;;;;;;23.65;72.37;101643.41;5221083;28;20036;-67
2022/08/24 07:47:33;;;;;;;21.23;13.32;;;;;;;23.72;70.42;101642.13;5220937;28;20091;-68
2022/08/24 07:50:05;;;;;;;17.87;12.47;;;;;;;23.94;70.81;101649.84;5221320;28;20049;-68
2022/08/24 07:52:37;;;;;;;16.95;12.02;;;;;;;23.95;72.27;101651.53;5221340;28;20034;-68
2022/08/24 07:55:10;;;;;;;17.43;10.93;;;;;;;24.11;72.86;101650.69;5221057;28;20034;-68
2022/08/24 07:57:43;;;;;;;18.88;11.32;;;;;;;24.29;66.82;101652.31;5221165;28;20117;-68
2022/08/24 08:00:18;;;;;;;16.23;11.70;;;;;;;24.38;65.09;101656.28;5220987;28;20034;-68
2022/08/24 08:02:49;;;;;;;15.40;10.13;;;;;;;24.49;63.24;101648.50;5221184;28;20103;-68
2022/08/24 08:05:22;;;;;;;14.53;9.20;;;;;;;24.55;63.71;101650.84;5220676;28;20043;-68
2022/08/24 08:07:54;;;;;;;12.77;8.77;;;;;;;24.74;63.88;101650.63;5220679;28;20065;-68
2022/08/24 08:10:29;;;;;;;13.35;9.07;;;;;;;24.91;61.65;101652.31;5203412;28;20072;-68
2022/08/24 08:13:02;;;;;;;11.02;8.00;;;;;;;25.04;61.28;101649.75;5221078;28;20096;-68
2022/08/24 08:15:34;;;;;;;15.27;8.70;;;;;;;25.09;61.46;101652.16;5221206;28;20088;-68
2022/08/24 08:18:05;;;;;;;14.47;7.37;;;;;;;25.24;60.80;101645.00;5221058;28;20042;-68
2022/08/24 08:20:39;;;;;;;15.18;7.97;;;;;;;25.21;61.76;101648.75;5220816;28;20493;-69
2022/08/24 08:26:01;;;;;;;11.77;6.97;;;;;;;25.61;64.30;101650.78;5221187;28;20046;-68
2022/08/24 08:28:33;;;;;;;10.40;6.63;;;;;;;25.76;61.26;101655.16;5219612;28;20034;-68
2022/08/24 08:31:04;;;;;;;16.55;6.93;;;;;;;26.01;61.54;101661.63;5220594;28;20459;-68
2022/08/24 08:33:36;;;;;;;12.32;7.43;;;;;;;26.09;63.48;101653.13;5203298;28;20036;-68
2022/08/24 08:36:11;;;;;;;9.85;6.85;;;;;;;26.37;62.40;101652.16;5220363;28;20109;-68
2022/08/24 08:38:42;;;;;;;9.88;6.75;;;;;;;26.43;59.42;101656.25;5220521;28;20040;-68
2022/08/24 08:41:16;;;;;;;9.48;5.13;;;;;;;26.54;58.92;101646.56;5220529;28;20029;-69
2022/08/24 08:44:03;;;;;;;8.30;6.00;;;;;;;26.73;59.15;101640.88;5220528;28;20052;-68
2022/08/24 08:46:49;;;;;;;10.15;6.05;;;;;;;26.81;58.77;101651.06;5203152;28;20026;-68
2022/08/24 08:49:52;;;;;;;6.65;4.93;;;;;;;26.95;61.07;101650.09;5220369;28;20048;-69
2022/08/24 08:52:45;;;;;;;9.98;5.20;;;;;;;27.11;57.22;101660.59;5221132;28;20026;-69
2022/08/24 08:55:19;;;;;;;7.78;4.25;;;;;;;26.93;54.83;101660.94;5220565;28;20355;-69
2022/08/24 08:58:03;;;;;;;12.18;5.00;;;;;;;27.07;55.48;101656.44;5220383;28;20038;-68
2022/08/24 09:01:04;;;;;;;10.80;5.25;;;;;;;27.12;56.47;101654.28;5220301;28;20034;-69
2022/08/24 09:04:04;;;;;;;9.32;3.90;;;;;;;27.21;56.13;101656.34;5220263;28;20037;-69
2022/08/24 09:06:45;;;;;;;5.97;3.47;;;;;;;26.88;57.52;101655.00;5201514;28;20038;-69
2022/08/24 09:09:57;;;;;;;11.80;5.60;;;;;;;26.74;54.75;101655.09;5220236;28;20026;-69
2022/08/24 09:12:34;;;;;;;;;;;;;;;26.99;57.63;101650.75;5177937;28;20427;-69
2022/08/24 09:15:27;;;;;;;9.18;3.85;;;;;;;26.59;57.74;101659.63;5177222;28;19910;-69
2022/08/24 09:18:05;;;;;;;4.82;2.63;;;;;;;26.63;55.52;101662.94;5209075;28;20041;-69
2022/08/24 09:20:49;;;;;;;7.10;3.25;;;;;;;26.42;58.14;101660.75;5202824;28;20026;-69
2022/08/24 09:23:38;;;;;;;8.15;2.90;;;;;;;26.33;55.28;101661.38;5202971;28;20475;-69
2022/08/24 09:26:31;;;;;;;8.48;2.70;;;;;;;26.59;56.22;101664.97;5220681;28;20049;-69
2022/08/24 09:29:22;;;;;;;7.22;3.70;;;;;;;26.67;58.37;101668.03;5219849;28;20026;-69
2022/08/24 09:32:09;;;;;;;5.82;2.92;;;;;;;26.83;53.69;101669.69;5202318;28;20040;-69
2022/08/24 09:34:58;;;;;;;6.20;3.05;;;;;;;26.95;57.82;101657.28;5220246;28;20430;-69
2022/08/24 09:37:50;;;;;;;5.78;2.95;;;;;;;27.13;54.24;101663.16;5219550;28;20128;-70
2022/08/24 09:41:11;;;;;;;4.93;2.90;;;;;;;27.54;53.71;101657.63;5222675;28;20498;-69
2022/08/24 09:44:07;;;;;;;8.23;3.17;;;;;;;27.80;54.66;101660.25;5223781;28;20101;-69
2022/08/24 09:46:57;;;;;;;10.23;3.70;;;;;;;27.82;53.84;101661.00;5223634;28;20065;-69
2022/08/24 09:49:47;;;;;;;6.18;2.85;;;;;;;27.81;51.16;101662.84;5224194;28;20064;-69
2022/08/24 09:52:30;;;;;;;7.88;3.55;;;;;;;27.98;54.38;101666.13;5223825;28;20397;-69
2022/08/24 09:55:35;;;;;;;7.78;2.30;;;;;;;28.27;51.54;101668.50;5224059;28;20029;-69
2022/08/24 09:58:09;;;;;;;6.15;2.50;;;;;;;28.49;50.20;101667.78;5223792;28;20040;-69
2022/08/24 10:00:47;;;;;;;3.78;2.50;;;;;;;28.76;51.97;101664.88;5223624;28;20387;-69
2022/08/24 10:03:30;;;;;;;4.28;2.15;;;;;;;29.04;51.29;101666.28;5223678;28;20037;-69
2022/08/24 10:06:09;;;;;;;3.60;2.17;;;;;;;29.16;49.70;101663.59;5206004;28;20113;-71
2022/08/24 10:08:43;;;;;;;2.45;1.92;;;;;;;29.57;46.54;101657.69;5223678;28;20034;-71
2022/08/24 10:11:24;;;;;;;4.28;2.10;;;;;;;29.40;47.35;101653.69;5223817;28;20029;-71
2022/08/24 10:14:02;;;;;;;3.28;2.25;;;;;;;29.17;48.82;101659.97;5223454;28;20064;-71
2022/08/24 10:16:37;;;;;;;4.38;2.17;;;;;;;29.18;46.42;101650.94;5223546;28;20029;-70
2022/08/24 10:19:38;;;;;;;5.60;2.25;;;;;;;29.63;51.02;101648.28;5222951;28;20125;-71
2022/08/24 10:22:15;;;;;;;3.28;1.90;;;;;;;29.89;47.95;101643.53;5205414;28;20472;-71
2022/08/24 10:25:14;;;;;;;4.40;1.85;;;;;;;29.52;50.82;101642.94;5223559;28;20129;-70
2022/08/24 10:28:17;;;;;;;3.50;2.00;;;;;;;29.27;48.12;101637.69;5223423;28;20344;-71
2022/08/24 10:30:58;;;;;;;4.70;1.92;;;;;;;28.93;53.26;101644.78;5222830;28;20427;-70
2022/08/24 10:33:59;;;;;;;3.80;2.00;;;;;;;28.86;50.00;101640.88;5222685;28;20033;-71
2022/08/24 10:36:58;;;;;;;3.33;1.75;;;;;;;28.74;50.79;101640.84;5217982;28;20277;-71
2022/08/24 10:40:08;;;;;;;4.10;2.20;;;;;;;28.56;49.78;101645.75;5204713;28;20068;-71
2022/08/24 10:46:35;;;;;;;2.83;1.98;;;;;;;29.50;52.52;101643.06;5207931;28;20120;-71
2022/08/24 10:49:34;;;;;;;4.47;1.90;;;;;;;30.28;51.63;101635.81;5222585;28;20086;-71
2022/08/24 10:52:30;;;;;;;5.05;2.05;;;;;;;31.27;46.56;101631.06;5221451;28;20040;-71
2022/08/24 10:55:26;;;;;;;6.63;2.30;;;;;;;32.04;44.07;101638.69;5222401;28;20029;-71
2022/08/24 10:58:12;;;;;;;3.88;2.00;;;;;;;32.60;41.23;101635.31;5222396;28;20108;-71
2022/08/24 11:00:44;;;;;;;5.03;2.13;;;;;;;33.23;36.50;101623.16;5222380;28;20466;-71
2022/08/24 11:03:21;;;;;;;2.85;2.10;;;;;;;33.24;36.36;101623.00;5222661;28;20026;-70
2022/08/24 11:05:54;;;;;;;3.13;2.00;;;;;;;33.73;36.40;101616.53;5205188;28;20439;-71
2022/08/24 11:08:28;;;;;;;4.18;2.25;;;;;;;33.02;37.63;101626.91;5222034;28;20084;-71
2022/08/24 11:11:09;;;;;;;9.27;2.70;;;;;;;32.76;41.27;101623.97;5222244;28;20026;-72
2022/08/24 11:13:59;;;;;;;1.95;1.67;;;;;;;32.91;40.60;101627.06;5204512;28;20034;-69
2022/08/24 11:16:35;;;;;;;5.63;2.28;;;;;;;32.85;39.83;101624.94;5222515;28;20044;-69
2022/08/24 11:19:34;;;;;;;3.90;2.00;;;;;;;31.90;41.91;101621.06;5222011;28;20030;-69
2022/08/24 11:22:33;;;;;;;9.13;2.35;;;;;;;32.70;39.91;101622.72;5221114;28;20132;-70
2022/08/24 11:25:25;;;;;;;3.15;1.95;;;;;;;32.82;37.46;101615.28;5221959;28;20120;-70
2022/08/24 11:28:04;;;;;;;4.07;2.20;;;;;;;32.57;44.04;101607.75;5221764;28;20036;-70
2022/08/24 11:30:39;;;;;;;7.50;2.38;;;;;;;32.65;37.15;101608.78;5221938;28;20034;-69
2022/08/24 11:33:33;;;;;;;7.22;2.40;;;;;;;32.22;36.26;101610.06;5222052;28;20032;-70
2022/08/24 11:36:14;;;;;;;5.85;2.45;;;;;;;31.80;39.09;101605.72;5221762;28;20034;-71
2022/08/24 11:38:46;;;;;;;2.92;2.10;;;;;;;32.09;38.84;101606.78;5221869;28;20034;-70
2022/08/24 11:41:31;;;;;;;4.43;2.40;;;;;;;32.75;38.64;101607.91;5222076;28;20543;-71
2022/08/24 11:44:36;;;;;;;4.20;2.78;;;;;;;33.70;39.61;101604.19;5222867;28;20048;-71
2022/08/24 11:47:17;;;;;;;3.72;2.05;;;;;;;33.47;38.54;101594.75;5189330;28;20052;-71
2022/08/24 11:49:59;;;;;;;6.35;2.78;;;;;;;33.67;37.01;101603.63;5223704;28;20056;-72
2022/08/24 11:53:07;;;;;;;6.47;2.33;;;;;;;34.02;39.15;101594.72;5222563;28;20467;-71
2022/08/24 11:55:51;;;;;;;6.63;2.40;;;;;;;33.73;41.43;101600.31;5221805;28;20179;-71
2022/08/24 11:58:37;;;;;;;5.15;2.78;;;;;;;33.29;35.98;101595.53;5221648;28;20029;-71
2022/08/24 12:01:22;;;;;;;3.90;2.30;;;;;;;32.45;37.79;101593.59;5221694;28;20091;-71
2022/08/24 12:04:08;;;;;;;3.60;2.10;;;;;;;32.19;41.00;101602.25;5220580;28;20040;-70
2022/08/24 12:06:46;;;;;;;5.50;2.50;;;;;;;31.89;39.98;101593.25;5221668;28;20036;-71
2022/08/24 12:09:35;;;;;;;4.55;2.75;;;;;;;32.25;39.83;101590.03;5221361;28;20474;-71